Time;durP1;ratioP1;P1;durP2;ratioP2;P2;SDS_P1;SDS_P2;PMS_P1;PMS_P2;Temp;Humidity;BMP_temperature;BMP_pressure;BME280_temperature;BME280_humidity;BME280_pressure;Samples;Min_cycle;Max_cycle;Signal;HPM_P1;HPM_P2
2021/07/06 00:02:25;;;;;;;8.13;4.70;;;19.60;99.90;;;;;;4984367;28;20165;-30
2021/07/06 00:04:58;;;;;;;4.68;4.28;;;19.60;99.90;;;;;;4991315;28;20548;-31
2021/07/06 00:07:27;;;;;;;5.68;4.07;;;19.60;99.90;;;;;;4975917;28;20042;-31
2021/07/06 00:09:53;;;;;;;5.70;4.45;;;19.60;99.90;;;;;;4981464;28;20088;-31
2021/07/06 00:12:25;;;;;;;6.30;4.75;;;19.60;99.90;;;;;;4987009;28;20427;-31
2021/07/06 00:14:52;;;;;;;6.20;5.30;;;19.60;99.90;;;;;;4979881;28;20161;-31
2021/07/06 00:17:19;;;;;;;5.78;4.20;;;19.60;99.90;;;;;;4977198;28;20114;-30
2021/07/06 00:19:44;;;;;;;6.38;3.92;;;19.50;99.90;;;;;;4987824;28;20358;-31
2021/07/06 00:22:10;;;;;;;4.97;3.83;;;19.50;99.90;;;;;;4991589;28;20421;-30
2021/07/06 00:24:36;;;;;;;7.65;4.30;;;19.40;99.90;;;;;;4991174;28;20026;-30
2021/07/06 00:27:01;;;;;;;3.85;3.35;;;19.50;99.90;;;;;;4990375;28;20370;-31
2021/07/06 00:29:30;;;;;;;5.00;4.45;;;19.40;99.90;;;;;;4985403;28;20379;-31
2021/07/06 00:31:56;;;;;;;3.42;2.97;;;19.40;99.90;;;;;;4981974;28;20402;-30
2021/07/06 00:34:22;;;;;;;2.92;2.63;;;19.40;99.90;;;;;;4979592;28;20494;-31
2021/07/06 00:36:47;;;;;;;3.50;3.20;;;19.40;99.90;;;;;;4984228;28;20394;-30
2021/07/06 00:39:14;;;;;;;4.47;3.40;;;19.40;99.90;;;;;;4977634;28;20026;-31
2021/07/06 00:41:40;;;;;;;3.25;2.92;;;19.40;99.90;;;;;;4990853;28;20029;-31
2021/07/06 00:44:15;;;;;;;4.28;2.80;;;19.40;99.90;;;;;;4990578;28;20378;-31
2021/07/06 00:46:41;;;;;;;2.58;2.20;;;19.40;99.90;;;;;;4972761;28;20031;-29
2021/07/06 00:49:10;;;;;;;1.90;1.80;;;19.50;99.90;;;;;;4974233;28;20072;-29
2021/07/06 00:51:36;;;;;;;2.05;1.88;;;19.50;99.90;;;;;;4990758;28;20018;-30
2021/07/06 00:54:02;;;;;;;2.50;1.95;;;19.50;99.90;;;;;;4990192;28;20033;-30
2021/07/06 00:56:29;;;;;;;1.95;1.50;;;19.50;99.90;;;;;;4979946;28;20438;-31
2021/07/06 00:58:54;;;;;;;2.42;1.85;;;19.50;99.90;;;;;;4970494;28;20081;-30
2021/07/06 01:01:20;;;;;;;5.13;1.77;;;19.60;99.90;;;;;;4989958;28;20053;-30
2021/07/06 01:03:46;;;;;;;2.58;2.10;;;19.60;99.90;;;;;;4990145;28;20540;-30
2021/07/06 01:06:12;;;;;;;1.90;1.65;;;19.60;99.90;;;;;;4989019;28;20025;-31
2021/07/06 01:08:38;;;;;;;1.88;1.77;;;19.60;99.90;;;;;;4990008;28;20042;-31
2021/07/06 01:11:04;;;;;;;2.03;1.73;;;19.50;99.90;;;;;;4990284;28;20117;-30
2021/07/06 01:13:34;;;;;;;2.60;2.03;;;19.50;99.90;;;;;;4989654;28;20022;-31
2021/07/06 01:16:06;;;;;;;1.70;1.60;;;19.50;99.90;;;;;;4989895;28;20045;-31
2021/07/06 01:18:32;;;;;;;1.70;1.60;;;19.50;99.90;;;;;;4990647;28;20026;-31
2021/07/06 01:20:58;;;;;;;2.97;1.42;;;19.50;99.90;;;;;;4987737;28;20273;-30
2021/07/06 01:23:28;;;;;;;1.58;1.48;;;19.60;99.90;;;;;;4990653;28;20027;-30
2021/07/06 01:25:57;;;;;;;1.70;1.60;;;19.60;99.90;;;;;;4989662;28;20513;-30
2021/07/06 01:28:23;;;;;;;1.55;1.45;;;19.60;99.90;;;;;;4986131;28;20034;-30
2021/07/06 01:30:49;;;;;;;1.85;1.38;;;19.60;99.90;;;;;;4990013;28;20042;-30
2021/07/06 01:33:26;;;;;;;1.52;1.05;;;19.60;99.90;;;;;;4990605;28;20057;-30
2021/07/06 01:35:57;;;;;;;2.33;1.58;;;19.60;99.90;;;;;;4990280;28;20466;-30
2021/07/06 01:38:23;;;;;;;2.28;1.70;;;19.60;99.90;;;;;;4975577;28;20081;-30
2021/07/06 01:40:49;;;;;;;1.52;1.42;;;19.60;99.90;;;;;;4975387;28;20100;-30
2021/07/06 01:43:14;;;;;;;2.83;1.23;;;19.60;99.90;;;;;;4989958;28;20014;-30
2021/07/06 01:45:41;;;;;;;2.35;1.67;;;19.60;99.90;;;;;;4989491;28;20022;-30
2021/07/06 01:48:06;;;;;;;1.92;1.35;;;19.60;99.90;;;;;;4988234;28;20022;-30
2021/07/06 01:50:38;;;;;;;1.52;1.40;;;19.60;99.90;;;;;;4971171;28;20423;-30
2021/07/06 01:53:09;;;;;;;2.42;1.52;;;19.50;99.90;;;;;;4985784;28;20443;-29
2021/07/06 01:55:38;;;;;;;2.60;1.30;;;19.50;99.90;;;;;;4986337;28;20081;-29
2021/07/06 01:58:08;;;;;;;3.10;1.17;;;19.50;99.90;;;;;;4978361;28;20062;-30
2021/07/06 02:00:37;;;;;;;1.02;0.90;;;19.40;99.90;;;;;;4970255;28;20046;-29
2021/07/06 02:03:04;;;;;;;2.25;1.00;;;19.40;99.90;;;;;;4984027;28;20120;-29
2021/07/06 02:05:42;;;;;;;2.30;1.13;;;19.40;99.90;;;;;;4976767;28;20493;-30
2021/07/06 02:08:13;;;;;;;1.85;1.13;;;19.40;99.90;;;;;;4976088;28;20031;-29
2021/07/06 02:10:40;;;;;;;2.05;0.88;;;19.40;99.90;;;;;;4970833;28;20037;-31
2021/07/06 02:13:12;;;;;;;1.13;0.90;;;19.40;99.90;;;;;;4978925;28;20034;-31
2021/07/06 02:15:38;;;;;;;0.80;0.80;;;19.40;99.90;;;;;;4970505;28;20045;-29
2021/07/06 02:18:04;;;;;;;1.92;0.80;;;19.40;99.90;;;;;;4980775;28;20035;-29
2021/07/06 02:20:30;;;;;;;0.93;0.80;;;19.40;99.90;;;;;;4977386;28;20027;-29
2021/07/06 02:23:06;;;;;;;0.77;0.77;;;19.40;99.90;;;;;;4978786;28;20029;-30
2021/07/06 02:25:34;;;;;;;0.80;0.80;;;19.40;99.90;;;;;;4989282;28;20053;-30
2021/07/06 02:28:02;;;;;;;1.00;0.70;;;19.30;99.90;;;;;;4988537;28;20022;-30
2021/07/06 02:30:28;;;;;;;1.10;1.00;;;19.30;99.90;;;;;;4977726;28;20046;-30
2021/07/06 02:32:53;;;;;;;1.70;0.80;;;19.20;99.90;;;;;;4975865;28;20023;-30
2021/07/06 02:35:19;;;;;;;2.17;1.02;;;19.10;99.90;;;;;;4977672;28;20106;-30
2021/07/06 02:37:46;;;;;;;2.28;0.90;;;19.00;99.90;;;;;;4971256;28;20443;-30
2021/07/06 02:40:14;;;;;;;1.02;0.98;;;19.00;99.90;;;;;;4988317;28;20060;-30
2021/07/06 02:42:40;;;;;;;1.52;0.73;;;19.00;99.90;;;;;;4987742;28;20042;-30
2021/07/06 02:45:08;;;;;;;0.88;0.88;;;18.90;99.90;;;;;;4988942;28;20024;-30
2021/07/06 02:47:34;;;;;;;1.30;1.10;;;18.90;99.90;;;;;;4973926;28;20035;-29
2021/07/06 02:50:00;;;;;;;1.55;0.90;;;18.90;99.90;;;;;;4980548;28;20105;-29
2021/07/06 02:52:25;;;;;;;0.60;0.60;;;19.00;99.90;;;;;;4971806;28;20101;-30
2021/07/06 02:54:51;;;;;;;0.85;0.85;;;19.00;99.90;;;;;;4983864;28;20044;-30
2021/07/06 02:57:38;;;;;;;0.98;0.98;;;18.90;99.90;;;;;;4975826;28;20035;-30
2021/07/06 03:00:09;;;;;;;1.05;0.95;;;18.90;99.90;;;;;;4985508;28;20393;-30
2021/07/06 03:02:36;;;;;;;1.27;1.13;;;18.90;99.90;;;;;;4970741;28;20027;-31
2021/07/06 03:05:02;;;;;;;2.13;1.02;;;18.90;99.90;;;;;;4976036;28;20015;-30
2021/07/06 03:07:28;;;;;;;1.80;1.10;;;18.80;99.90;;;;;;4970098;28;20086;-30
2021/07/06 03:09:53;;;;;;;1.00;0.90;;;18.70;99.90;;;;;;4979414;28;20465;-30
2021/07/06 03:12:19;;;;;;;0.90;0.90;;;18.70;99.90;;;;;;4974928;28;20122;-30
2021/07/06 03:14:53;;;;;;;1.33;1.00;;;18.60;99.90;;;;;;4981680;28;20049;-30
2021/07/06 03:17:25;;;;;;;0.80;0.80;;;18.60;99.90;;;;;;4977076;28;20418;-30
2021/07/06 03:19:51;;;;;;;2.63;1.00;;;18.70;99.90;;;;;;4980777;28;20026;-30
2021/07/06 03:22:17;;;;;;;0.98;0.90;;;18.70;99.90;;;;;;4983346;28;20034;-30
2021/07/06 03:24:43;;;;;;;1.08;1.00;;;18.70;99.90;;;;;;4979077;28;20019;-30
2021/07/06 03:27:08;;;;;;;1.00;1.00;;;18.70;99.90;;;;;;4992597;28;20157;-29
2021/07/06 03:29:34;;;;;;;2.08;1.00;;;18.70;99.90;;;;;;4992639;28;20054;-30
2021/07/06 03:32:00;;;;;;;0.98;0.90;;;18.70;99.90;;;;;;4991283;28;20037;-30
2021/07/06 03:34:25;;;;;;;1.08;0.98;;;18.70;99.90;;;;;;4976051;28;20023;-30
2021/07/06 03:36:51;;;;;;;1.77;1.00;;;18.80;99.90;;;;;;4983878;28;20045;-30
2021/07/06 03:39:17;;;;;;;0.70;0.70;;;18.70;99.90;;;;;;4976476;28;20085;-30
2021/07/06 03:41:45;;;;;;;0.98;0.77;;;18.70;99.90;;;;;;4981774;28;20481;-30
2021/07/06 03:44:11;;;;;;;0.90;0.90;;;18.70;99.90;;;;;;4992726;28;20390;-30
2021/07/06 03:46:36;;;;;;;1.23;0.88;;;18.70;99.90;;;;;;4991461;28;20030;-29
2021/07/06 03:49:05;;;;;;;1.25;1.02;;;18.70;99.90;;;;;;4971113;28;20422;-29
2021/07/06 03:51:34;;;;;;;1.10;1.00;;;18.60;99.90;;;;;;4985450;28;20080;-31
2021/07/06 03:54:00;;;;;;;1.00;1.00;;;18.60;99.90;;;;;;4983629;28;20041;-30
2021/07/06 03:56:25;;;;;;;2.08;0.90;;;18.70;99.90;;;;;;4982300;28;20244;-31
2021/07/06 03:58:57;;;;;;;1.48;1.00;;;18.70;99.90;;;;;;4973818;28;20426;-29
2021/07/06 04:01:23;;;;;;;0.63;0.63;;;18.80;99.90;;;;;;4981123;28;20050;-32
2021/07/06 04:03:48;;;;;;;0.98;0.82;;;18.90;99.90;;;;;;4986251;28;20366;-30
2021/07/06 04:06:17;;;;;;;0.80;0.80;;;18.90;99.90;;;;;;4983304;28;20077;-29
2021/07/06 04:08:42;;;;;;;1.55;0.98;;;18.90;99.90;;;;;;4981330;28;20038;-31
2021/07/06 04:11:08;;;;;;;3.10;1.10;;;18.90;99.90;;;;;;4975641;28;20394;-29
2021/07/06 04:13:33;;;;;;;2.53;0.73;;;18.90;99.90;;;;;;4974028;28;20030;-29
2021/07/06 04:15:59;;;;;;;3.03;0.90;;;19.00;99.90;;;;;;4972849;28;20595;-30
2021/07/06 04:18:24;;;;;;;1.63;1.00;;;19.00;99.90;;;;;;4983449;28;20247;-30
2021/07/06 04:20:52;;;;;;;1.33;0.98;;;19.10;99.90;;;;;;4971227;28;20118;-30
2021/07/06 04:23:21;;;;;;;3.05;0.95;;;19.10;99.90;;;;;;4989475;28;20076;-31
2021/07/06 04:25:48;;;;;;;2.28;1.02;;;19.20;99.90;;;;;;4982742;28;20030;-29
2021/07/06 04:28:17;;;;;;;2.25;1.10;;;19.20;99.90;;;;;;4985426;28;20030;-30
2021/07/06 04:30:43;;;;;;;1.27;1.17;;;19.20;99.90;;;;;;4989023;28;20022;-31
2021/07/06 04:33:09;;;;;;;1.90;1.02;;;19.30;99.90;;;;;;4979985;28;20041;-30
2021/07/06 04:35:35;;;;;;;1.50;1.00;;;19.30;99.90;;;;;;4982484;28;20143;-30
2021/07/06 04:38:03;;;;;;;1.77;1.00;;;19.40;99.90;;;;;;4978171;28;20037;-30
2021/07/06 04:40:28;;;;;;;0.90;0.90;;;19.40;99.90;;;;;;4975913;28;20022;-31
2021/07/06 04:42:55;;;;;;;2.35;0.95;;;19.40;99.90;;;;;;4984692;28;20037;-30
2021/07/06 04:45:22;;;;;;;1.73;1.20;;;19.40;99.90;;;;;;4984160;28;20033;-29
2021/07/06 04:47:47;;;;;;;2.40;1.10;;;19.30;99.90;;;;;;4979153;28;20035;-30
2021/07/06 04:50:16;;;;;;;1.23;0.98;;;19.30;99.90;;;;;;4987890;28;20030;-31
2021/07/06 04:52:45;;;;;;;1.17;0.93;;;19.30;99.90;;;;;;4987131;28;20045;-30
2021/07/06 04:55:12;;;;;;;1.77;1.05;;;19.30;99.90;;;;;;4990710;28;20029;-30
2021/07/06 04:57:37;;;;;;;0.95;0.93;;;19.30;99.90;;;;;;4988989;28;20428;-30
2021/07/06 05:00:04;;;;;;;2.45;1.00;;;19.40;99.90;;;;;;4990168;28;20023;-31
2021/07/06 05:02:33;;;;;;;1.15;0.90;;;19.40;99.90;;;;;;4978076;28;20466;-31
2021/07/06 05:05:03;;;;;;;4.20;1.13;;;19.40;99.90;;;;;;4975351;28;20113;-30
2021/07/06 05:07:29;;;;;;;1.45;1.00;;;19.40;99.90;;;;;;4972436;28;20133;-30
2021/07/06 05:09:54;;;;;;;2.25;1.42;;;19.40;99.90;;;;;;4990140;28;20117;-30
2021/07/06 05:12:20;;;;;;;2.17;0.90;;;19.40;99.90;;;;;;4990502;28;20023;-30
2021/07/06 05:14:45;;;;;;;3.42;1.10;;;19.40;99.90;;;;;;4987868;28;20019;-30
2021/07/06 05:17:11;;;;;;;2.75;1.20;;;19.50;99.90;;;;;;4970154;28;20043;-31
2021/07/06 05:19:36;;;;;;;2.08;1.30;;;19.50;99.90;;;;;;4986188;28;20026;-29
2021/07/06 05:22:02;;;;;;;2.33;1.20;;;19.60;99.90;;;;;;4978924;28;20034;-30
2021/07/06 05:24:31;;;;;;;4.15;1.20;;;19.60;99.90;;;;;;4983553;28;20045;-31
2021/07/06 05:26:56;;;;;;;1.50;1.10;;;19.80;99.90;;;;;;4989928;28;20029;-30
2021/07/06 05:29:22;;;;;;;2.20;1.38;;;19.80;99.90;;;;;;4988676;28;20022;-30
2021/07/06 05:31:48;;;;;;;1.73;1.13;;;19.90;99.90;;;;;;4984440;28;20061;-30
2021/07/06 05:34:13;;;;;;;2.78;1.67;;;19.90;99.90;;;;;;4978025;28;20026;-31
2021/07/06 05:36:43;;;;;;;2.65;1.30;;;20.00;99.90;;;;;;4989431;28;20413;-31
2021/07/06 05:39:08;;;;;;;1.65;1.25;;;19.90;99.90;;;;;;4988309;28;20034;-31
2021/07/06 05:41:34;;;;;;;3.22;1.00;;;20.00;99.90;;;;;;4979127;28;20467;-30
2021/07/06 05:44:00;;;;;;;2.70;0.93;;;20.00;99.90;;;;;;4973819;28;20034;-30
2021/07/06 05:46:31;;;;;;;3.03;1.30;;;20.00;99.90;;;;;;4976068;28;20023;-30
2021/07/06 05:49:00;;;;;;;2.15;1.17;;;20.10;99.90;;;;;;4971783;28;20062;-30
2021/07/06 05:51:26;;;;;;;1.45;1.20;;;20.10;99.90;;;;;;4983816;28;20042;-31
2021/07/06 05:53:51;;;;;;;4.55;1.23;;;20.10;99.90;;;;;;4970671;28;20558;-30
2021/07/06 05:56:18;;;;;;;2.90;1.25;;;20.10;99.90;;;;;;4988328;28;20018;-31
2021/07/06 05:58:43;;;;;;;1.58;1.45;;;20.10;99.90;;;;;;4983861;28;20042;-31
2021/07/06 06:01:09;;;;;;;2.20;1.60;;;20.20;99.90;;;;;;4981594;28;20073;-30
2021/07/06 06:03:35;;;;;;;1.58;1.30;;;20.20;99.90;;;;;;4969786;28;20026;-30
2021/07/06 06:06:01;;;;;;;3.13;1.27;;;20.20;99.90;;;;;;4982517;28;20022;-30
2021/07/06 06:08:27;;;;;;;1.90;1.35;;;20.20;99.90;;;;;;4988016;28;20063;-35
2021/07/06 06:10:52;;;;;;;1.55;1.23;;;20.30;99.90;;;;;;4989126;28;20026;-35
2021/07/06 06:13:24;;;;;;;1.30;1.17;;;20.30;99.90;;;;;;4989943;28;20057;-34
2021/07/06 06:15:53;;;;;;;1.58;1.17;;;20.30;99.90;;;;;;4988411;28;20028;-32
2021/07/06 06:18:18;;;;;;;1.30;1.20;;;20.30;99.90;;;;;;4985466;28;20026;-30
2021/07/06 06:20:44;;;;;;;5.13;1.20;;;20.40;99.90;;;;;;4989262;28;20029;-30
2021/07/06 06:23:10;;;;;;;1.80;1.27;;;20.40;99.90;;;;;;4989016;28;20085;-35
2021/07/06 06:25:35;;;;;;;1.58;1.20;;;20.40;99.90;;;;;;4989709;28;20034;-30
2021/07/06 06:28:01;;;;;;;3.25;1.30;;;20.50;99.90;;;;;;4989001;28;20110;-30
2021/07/06 06:30:27;;;;;;;2.03;1.40;;;20.40;99.90;;;;;;4988549;28;20054;-30
2021/07/06 06:32:55;;;;;;;1.95;1.58;;;20.40;99.90;;;;;;4989561;28;20067;-30
2021/07/06 06:35:22;;;;;;;3.85;1.38;;;20.40;99.90;;;;;;4989873;28;20034;-30
2021/07/06 06:37:50;;;;;;;2.25;1.30;;;20.50;99.90;;;;;;4988384;28;20034;-29
2021/07/06 06:40:16;;;;;;;1.35;1.20;;;20.50;99.90;;;;;;4988897;28;20157;-33
2021/07/06 06:42:42;;;;;;;2.58;1.30;;;20.60;99.90;;;;;;4988624;28;20102;-33
2021/07/06 06:45:09;;;;;;;2.28;1.40;;;20.60;99.90;;;;;;4987200;28;20045;-34
2021/07/06 06:47:36;;;;;;;1.73;1.30;;;20.60;99.90;;;;;;4988038;28;20062;-33
2021/07/06 06:50:05;;;;;;;3.88;1.63;;;20.60;99.90;;;;;;4982634;28;20015;-33
2021/07/06 06:52:31;;;;;;;2.60;1.30;;;20.60;99.90;;;;;;4982553;28;20026;-33
2021/07/06 06:54:59;;;;;;;2.83;2.03;;;20.60;99.90;;;;;;4991912;28;20095;-33
2021/07/06 06:57:26;;;;;;;4.63;2.30;;;20.60;99.90;;;;;;4993104;28;20486;-33
2021/07/06 06:59:54;;;;;;;3.22;2.10;;;20.70;99.90;;;;;;4989415;28;20109;-33
2021/07/06 07:02:20;;;;;;;3.78;1.40;;;20.70;99.90;;;;;;4985489;28;20022;-36
2021/07/06 07:04:52;;;;;;;1.55;1.20;;;20.70;99.90;;;;;;4992755;28;20030;-35
2021/07/06 07:07:19;;;;;;;2.97;1.42;;;20.80;99.90;;;;;;4992705;28;20840;-35
2021/07/06 07:09:45;;;;;;;2.22;1.50;;;20.80;99.90;;;;;;4992112;28;20255;-34
2021/07/06 07:12:11;;;;;;;2.25;1.30;;;20.90;99.90;;;;;;4992520;28;20535;-34
2021/07/06 07:14:38;;;;;;;2.88;1.13;;;21.00;99.90;;;;;;4989278;28;20037;-34
2021/07/06 07:17:04;;;;;;;3.67;1.50;;;21.00;99.90;;;;;;4989832;28;20157;-34
2021/07/06 07:19:30;;;;;;;1.63;1.23;;;21.10;99.90;;;;;;4991481;28;20023;-34
2021/07/06 07:21:56;;;;;;;3.67;1.42;;;21.20;99.90;;;;;;4992376;28;20037;-34
2021/07/06 07:24:22;;;;;;;19.00;1.83;;;21.20;99.90;;;;;;4993136;28;20033;-34
2021/07/06 07:26:48;;;;;;;3.88;1.33;;;21.30;99.90;;;;;;4992469;28;20034;-34
2021/07/06 07:29:14;;;;;;;3.65;1.40;;;21.40;99.90;;;;;;4992114;28;20031;-34
2021/07/06 07:31:39;;;;;;;1.63;1.10;;;21.40;99.90;;;;;;4992771;28;20022;-34
2021/07/06 07:34:14;;;;;;;3.47;1.40;;;21.40;99.90;;;;;;4991694;28;20375;-34
2021/07/06 07:36:41;;;;;;;2.25;1.30;;;21.50;99.90;;;;;;4991300;28;20050;-34
2021/07/06 07:39:08;;;;;;;2.60;1.10;;;21.50;99.90;;;;;;4991305;28;20089;-34
2021/07/06 07:41:34;;;;;;;1.15;1.05;;;21.50;99.90;;;;;;4992878;28;20106;-34
2021/07/06 07:43:59;;;;;;;1.40;0.90;;;21.50;99.90;;;;;;4991348;28;20121;-34
2021/07/06 07:46:26;;;;;;;3.15;1.10;;;21.50;99.90;;;;;;4984946;28;20545;-34
2021/07/06 07:48:51;;;;;;;1.50;0.95;;;21.50;99.90;;;;;;4982634;28;20047;-34
2021/07/06 07:51:18;;;;;;;1.88;1.05;;;21.50;99.90;;;;;;4984416;28;20057;-34
2021/07/06 07:53:45;;;;;;;2.78;1.70;;;21.50;99.90;;;;;;4978297;28;20699;-34
2021/07/06 07:56:11;;;;;;;1.75;1.52;;;21.60;99.90;;;;;;4989719;28;20121;-34
2021/07/06 07:58:37;;;;;;;1.27;0.90;;;21.60;99.90;;;;;;4990821;28;20093;-34
2021/07/06 08:01:03;;;;;;;2.95;1.00;;;21.60;99.90;;;;;;4990163;28;20022;-34
2021/07/06 08:03:28;;;;;;;2.90;1.08;;;21.70;99.70;;;;;;4992352;28;20038;-33
2021/07/06 08:05:55;;;;;;;1.13;0.85;;;21.60;99.60;;;;;;4991998;28;20030;-34
2021/07/06 08:08:27;;;;;;;2.05;0.82;;;21.60;99.50;;;;;;4991256;28;20054;-34
2021/07/06 08:10:54;;;;;;;0.95;0.80;;;21.60;99.10;;;;;;4989013;28;20430;-34
2021/07/06 08:13:22;;;;;;;2.22;1.08;;;21.60;99.00;;;;;;4992820;28;20026;-34
2021/07/06 08:15:48;;;;;;;1.63;1.00;;;21.60;99.20;;;;;;4987564;28;20018;-34
2021/07/06 08:18:14;;;;;;;1.23;0.73;;;21.60;98.80;;;;;;4992023;28;20038;-33
2021/07/06 08:20:39;;;;;;;0.95;0.70;;;21.70;98.80;;;;;;4991585;28;20076;-34
2021/07/06 08:23:05;;;;;;;2.25;0.73;;;21.70;98.90;;;;;;4991037;28;20034;-34
2021/07/06 08:25:30;;;;;;;1.85;0.77;;;21.70;98.90;;;;;;4991306;28;20022;-34
2021/07/06 08:27:56;;;;;;;1.75;0.75;;;21.80;98.80;;;;;;4991802;28;20420;-34
2021/07/06 08:30:22;;;;;;;1.85;0.60;;;21.90;98.90;;;;;;4991451;28;20418;-33
2021/07/06 08:32:48;;;;;;;1.00;0.82;;;22.00;98.50;;;;;;4991054;28;20054;-34
2021/07/06 08:35:13;;;;;;;1.42;1.00;;;22.10;98.00;;;;;;4991301;28;20026;-30
2021/07/06 08:37:42;;;;;;;1.55;1.00;;;22.10;97.80;;;;;;4991436;28;20026;-30
2021/07/06 08:40:09;;;;;;;1.05;0.75;;;22.20;97.90;;;;;;4988920;28;20019;-30
2021/07/06 08:42:40;;;;;;;1.45;0.90;;;22.30;97.80;;;;;;4990867;28;20122;-30
2021/07/06 08:45:10;;;;;;;3.00;0.88;;;22.40;97.60;;;;;;4990712;28;20014;-30
2021/07/06 08:47:37;;;;;;;2.47;0.70;;;22.50;97.70;;;;;;4988418;28;20027;-30
2021/07/06 08:50:06;;;;;;;3.05;0.85;;;22.70;97.10;;;;;;4974341;28;20037;-30
2021/07/06 08:52:32;;;;;;;1.10;0.82;;;22.80;96.00;;;;;;4991442;28;20162;-31
2021/07/06 08:54:58;;;;;;;2.60;1.15;;;22.90;96.20;;;;;;4979648;28;20046;-30
2021/07/06 08:57:24;;;;;;;1.90;0.90;;;22.90;96.10;;;;;;4987045;28;20478;-30
2021/07/06 08:59:50;;;;;;;3.55;0.98;;;22.90;96.20;;;;;;4971378;28;20368;-31
2021/07/06 09:02:21;;;;;;;1.75;0.80;;;23.00;96.00;;;;;;4989058;28;20054;-29
2021/07/06 09:04:46;;;;;;;3.47;0.70;;;23.00;95.70;;;;;;4990249;28;20080;-30
2021/07/06 09:07:15;;;;;;;3.05;1.40;;;23.00;95.90;;;;;;4990192;28;20030;-30
2021/07/06 09:09:41;;;;;;;1.75;0.90;;;23.10;95.70;;;;;;4983489;28;20517;-30
2021/07/06 09:12:12;;;;;;;2.40;0.77;;;23.10;95.80;;;;;;4989394;28;20037;-31
2021/07/06 09:14:44;;;;;;;10.35;2.70;;;23.10;95.90;;;;;;4991394;28;20124;-28
2021/07/06 09:17:10;;;;;;;;;;;23.20;95.80;;;;;;4991790;28;20077;-31
2021/07/06 09:19:36;;;;;;;1.60;0.80;;;23.20;95.40;;;;;;4990109;28;19956;-34
2021/07/06 09:22:19;;;;;;;2.10;0.68;;;23.20;95.50;;;;;;4989661;28;20513;-33
2021/07/06 09:24:50;;;;;;;2.97;0.60;;;23.20;96.00;;;;;;4990294;28;20045;-33
2021/07/06 09:27:22;;;;;;;4.97;0.90;;;23.20;95.80;;;;;;4989931;28;20389;-34
2021/07/06 09:30:14;;;;;;;1.00;0.70;;;23.20;95.60;;;;;;4990186;28;20030;-33
2021/07/06 09:32:45;;;;;;;1.38;0.57;;;23.20;95.50;;;;;;4987885;28;20035;-31
2021/07/06 09:35:13;;;;;;;1.50;0.80;;;23.20;95.10;;;;;;4985309;28;20101;-31
2021/07/06 09:37:56;;;;;;;2.05;0.63;;;23.20;94.90;;;;;;4982148;28;20038;-30
2021/07/06 09:40:27;;;;;;;2.80;0.70;;;23.30;95.00;;;;;;4990207;28;20037;-30
2021/07/06 09:43:12;;;;;;;1.45;0.75;;;23.30;95.10;;;;;;4982389;28;20034;-30
2021/07/06 09:45:41;;;;;;;2.05;0.90;;;23.40;95.10;;;;;;4989971;28;20453;-38
2021/07/06 09:48:08;;;;;;;2.67;0.80;;;23.40;94.90;;;;;;4990074;28;20027;-30
2021/07/06 09:50:37;;;;;;;2.30;0.90;;;23.40;93.80;;;;;;4990294;28;20557;-32
2021/07/06 09:53:03;;;;;;;1.55;0.77;;;23.30;93.50;;;;;;4989525;28;20014;-31
2021/07/06 09:55:32;;;;;;;2.25;0.70;;;23.10;94.00;;;;;;4990183;28;20033;-31
2021/07/06 09:58:04;;;;;;;1.95;0.70;;;23.00;94.30;;;;;;4989004;28;20045;-30
2021/07/06 10:00:31;;;;;;;1.65;0.68;;;23.00;94.00;;;;;;4989229;28;20102;-35
2021/07/06 10:03:01;;;;;;;1.70;0.90;;;22.90;94.00;;;;;;4989156;28;20018;-36
2021/07/06 10:05:28;;;;;;;3.88;1.00;;;22.90;94.10;;;;;;4989432;28;20499;-36
2021/07/06 10:07:54;;;;;;;5.32;0.93;;;22.90;93.80;;;;;;4986482;28;20377;-36
2021/07/06 10:10:21;;;;;;;3.88;0.90;;;22.80;93.70;;;;;;4978696;28;20445;-35
2021/07/06 10:12:48;;;;;;;5.35;1.10;;;22.80;93.50;;;;;;4989009;28;20026;-35
2021/07/06 10:15:16;;;;;;;2.08;0.93;;;22.70;93.10;;;;;;4988619;28;20414;-35
2021/07/06 10:17:43;;;;;;;3.17;1.00;;;22.70;93.30;;;;;;4989607;28;20030;-36
2021/07/06 10:20:11;;;;;;;2.40;0.90;;;22.60;93.70;;;;;;4988835;28;20030;-35
2021/07/06 10:22:38;;;;;;;4.28;1.10;;;22.60;93.80;;;;;;4988824;28;20482;-36
2021/07/06 10:25:07;;;;;;;3.35;1.13;;;22.60;93.70;;;;;;4985329;28;20026;-36
2021/07/06 10:27:36;;;;;;;2.30;1.33;;;22.60;93.60;;;;;;4986616;28;20100;-35
2021/07/06 10:30:31;;;;;;;1.27;0.65;;;22.60;93.90;;;;;;4977469;28;20031;-36
2021/07/06 10:32:59;;;;;;;1.48;0.65;;;22.70;93.60;;;;;;4975953;28;20045;-32
2021/07/06 10:35:36;;;;;;;2.17;0.77;;;22.80;93.70;;;;;;4988626;28;20022;-32
2021/07/06 10:38:31;;;;;;;5.28;1.35;;;22.90;93.70;;;;;;4988936;28;20101;-31
2021/07/06 10:41:14;;;;;;;1.63;0.85;;;23.00;93.60;;;;;;4989525;28;20121;-31
2021/07/06 10:43:45;;;;;;;1.20;0.80;;;23.10;93.40;;;;;;4988820;28;20026;-31
2021/07/06 10:46:20;;;;;;;3.53;0.80;;;23.30;93.30;;;;;;4986626;28;20022;-34
2021/07/06 10:49:07;;;;;;;1.23;0.82;;;23.40;92.60;;;;;;4989686;28;20034;-34
2021/07/06 10:51:36;;;;;;;1.50;0.70;;;23.40;92.40;;;;;;4987922;28;20025;-34
2021/07/06 10:54:26;;;;;;;3.25;0.95;;;23.40;91.90;;;;;;4972591;28;20501;-31
2021/07/06 10:56:54;;;;;;;3.20;0.80;;;23.20;91.70;;;;;;4987923;28;20022;-31
2021/07/06 10:59:34;;;;;;;2.80;0.80;;;23.00;91.80;;;;;;4989363;28;20065;-31
2021/07/06 11:02:01;;;;;;;2.20;0.95;;;23.00;92.50;;;;;;4987932;28;20484;-31
2021/07/06 11:04:40;;;;;;;3.28;0.85;;;23.10;92.60;;;;;;4987571;28;20461;-31
2021/07/06 11:07:09;;;;;;;2.90;0.90;;;23.30;92.50;;;;;;4987900;28;20041;-31
2021/07/06 11:09:35;;;;;;;3.42;0.82;;;23.50;91.90;;;;;;4987857;28;20460;-30
2021/07/06 11:12:23;;;;;;;3.55;0.98;;;23.50;91.40;;;;;;4987399;28;20102;-31
2021/07/06 11:14:53;;;;;;;3.22;0.95;;;23.60;90.70;;;;;;4988037;28;20037;-31
2021/07/06 11:17:37;;;;;;;5.88;1.13;;;23.60;90.40;;;;;;4988472;28;20128;-31
2021/07/06 11:20:07;;;;;;;4.32;1.17;;;23.60;89.60;;;;;;4989241;28;20109;-29
2021/07/06 11:22:55;;;;;;;3.90;1.00;;;23.50;87.90;;;;;;4989596;28;20057;-31
2021/07/06 11:25:29;;;;;;;4.00;0.85;;;23.50;88.40;;;;;;4988370;28;20505;-32
2021/07/06 11:28:18;;;;;;;7.47;1.30;;;23.50;89.00;;;;;;4989008;28;20652;-33
2021/07/06 11:31:15;;;;;;;4.85;1.52;;;23.40;87.80;;;;;;4991513;28;20031;-33
2021/07/06 11:33:41;;;;;;;2.40;1.30;;;23.20;87.80;;;;;;4992470;28;20022;-33
2021/07/06 11:36:15;;;;;;;5.55;1.20;;;23.10;87.70;;;;;;4992445;28;20406;-34
2021/07/06 11:38:46;;;;;;;6.47;1.48;;;23.10;87.70;;;;;;4992678;28;20081;-34
2021/07/06 11:41:15;;;;;;;5.70;1.15;;;23.20;88.80;;;;;;4992447;28;20022;-34
2021/07/06 11:43:43;;;;;;;3.25;1.55;;;23.30;85.20;;;;;;4992471;28;20084;-34
2021/07/06 11:46:16;;;;;;;4.50;1.00;;;23.30;85.60;;;;;;4991609;28;20538;-34
2021/07/06 11:48:43;;;;;;;5.78;1.08;;;23.20;81.80;;;;;;4982582;28;20018;-34
2021/07/06 11:51:14;;;;;;;4.97;0.80;;;23.10;82.00;;;;;;4992602;28;20374;-34
2021/07/06 11:53:53;;;;;;;2.28;0.80;;;23.00;81.10;;;;;;4992219;28;20030;-34
2021/07/06 11:56:23;;;;;;;1.92;0.60;;;22.90;81.90;;;;;;4992621;28;20381;-33
2021/07/06 11:58:48;;;;;;;2.30;0.70;;;22.80;81.80;;;;;;4991910;28;20038;-33
2021/07/06 12:01:14;;;;;;;4.10;0.82;;;22.90;82.00;;;;;;4992336;28;20030;-34
2021/07/06 12:03:41;;;;;;;1.48;0.82;;;22.90;82.20;;;;;;4992298;28;20462;-34
2021/07/06 12:06:07;;;;;;;3.20;0.98;;;23.00;81.30;;;;;;4992483;28;20113;-34
2021/07/06 12:08:41;;;;;;;5.82;0.82;;;23.00;81.40;;;;;;4991794;28;20072;-34
2021/07/06 12:11:15;;;;;;;4.28;1.02;;;23.20;82.70;;;;;;4991984;28;20667;-33
2021/07/06 12:13:40;;;;;;;4.90;0.90;;;23.50;82.60;;;;;;4991165;28;20121;-34
2021/07/06 12:16:11;;;;;;;5.05;1.05;;;23.60;80.70;;;;;;4992512;28;20052;-34
2021/07/06 12:18:46;;;;;;;3.20;0.93;;;23.70;81.00;;;;;;4992116;28;20038;-34
2021/07/06 12:21:12;;;;;;;3.90;0.98;;;23.70;79.70;;;;;;4991756;28;20057;-33
2021/07/06 12:23:47;;;;;;;4.38;0.90;;;23.70;77.50;;;;;;4992108;28;20481;-34
2021/07/06 12:26:13;;;;;;;2.38;1.35;;;23.60;78.30;;;;;;4972677;28;20031;-34
2021/07/06 12:28:40;;;;;;;4.18;1.10;;;23.50;78.00;;;;;;4986087;28;20030;-33
2021/07/06 12:31:16;;;;;;;2.78;0.73;;;23.60;78.00;;;;;;4992451;28;20101;-34
2021/07/06 12:33:43;;;;;;;1.70;0.70;;;23.60;77.20;;;;;;4991394;28;20022;-34
2021/07/06 12:36:09;;;;;;;2.30;0.80;;;23.60;77.60;;;;;;4991008;28;20049;-32
2021/07/06 12:38:34;;;;;;;3.88;0.88;;;23.70;77.30;;;;;;4992169;28;20030;-32
2021/07/06 12:41:14;;;;;;;4.38;2.05;;;23.70;77.70;;;;;;4990796;28;20029;-31
2021/07/06 12:43:40;;;;;;;2.15;1.10;;;23.70;76.30;;;;;;4990778;28;20065;-35
2021/07/06 12:46:06;;;;;;;3.20;1.60;;;23.70;77.30;;;;;;4991369;28;20054;-31
2021/07/06 12:48:32;;;;;;;2.28;1.38;;;23.80;78.00;;;;;;4991044;28;20029;-31
2021/07/06 12:51:09;;;;;;;2.85;0.90;;;23.80;78.50;;;;;;4991073;28;20023;-31
2021/07/06 12:53:34;;;;;;;3.67;0.90;;;23.70;75.80;;;;;;4990773;28;20023;-32
2021/07/06 12:56:00;;;;;;;6.07;1.23;;;23.70;76.70;;;;;;4990227;28;20022;-31